sensor_id;sensor_type;location;lat;lon;timestamp;pressure;altitude;pressure_sealevel;temperature;humidity
18755;BME280;35061;47.664;9.166;2022-08-06T00:02:26;102048.63;;;18.42;100.00
18755;BME280;35061;47.664;9.166;2022-08-06T00:04:58;102046.25;;;18.40;100.00
18755;BME280;35061;47.664;9.166;2022-08-06T00:07:26;102034.64;;;18.40;100.00
18755;BME280;35061;47.664;9.166;2022-08-06T00:10:17;102042.33;;;18.44;100.00
18755;BME280;35061;47.664;9.166;2022-08-06T00:12:54;102038.89;;;18.45;100.00
18755;BME280;35061;47.664;9.166;2022-08-06T00:15:24;102035.98;;;18.45;100.00
18755;BME280;35061;47.664;9.166;2022-08-06T00:18:11;102033.34;;;18.47;100.00
18755;BME280;35061;47.664;9.166;2022-08-06T00:20:39;102029.93;;;18.49;100.00
18755;BME280;35061;47.664;9.166;2022-08-06T00:23:09;102037.32;;;18.50;100.00
18755;BME280;35061;47.664;9.166;2022-08-06T00:25:43;102034.41;;;18.50;100.00
18755;BME280;35061;47.664;9.166;2022-08-06T00:28:22;102038.89;;;18.51;100.00
18755;BME280;35061;47.664;9.166;2022-08-06T00:30:59;102042.88;;;18.53;100.00
18755;BME280;35061;47.664;9.166;2022-08-06T00:33:35;102042.06;;;18.53;100.00
18755;BME280;35061;47.664;9.166;2022-08-06T00:36:24;102053.18;;;18.60;100.00
18755;BME280;35061;47.664;9.166;2022-08-06T00:38:55;102048.96;;;18.61;100.00
18755;BME280;35061;47.664;9.166;2022-08-06T00:41:25;102035.00;;;18.60;100.00
18755;BME280;35061;47.664;9.166;2022-08-06T00:44:08;102041.57;;;18.60;100.00
18755;BME280;35061;47.664;9.166;2022-08-06T00:46:38;102039.74;;;18.63;100.00
18755;BME280;35061;47.664;9.166;2022-08-06T00:49:06;102047.95;;;18.64;100.00
18755;BME280;35061;47.664;9.166;2022-08-06T00:51:37;102041.84;;;18.62;100.00
18755;BME280;35061;47.664;9.166;2022-08-06T00:54:19;102041.05;;;18.62;100.00
18755;BME280;35061;47.664;9.166;2022-08-06T00:57:00;102050.01;;;18.58;100.00
18755;BME280;35061;47.664;9.166;2022-08-06T00:59:33;102040.23;;;18.55;100.00
18755;BME280;35061;47.664;9.166;2022-08-06T01:02:01;102034.67;;;18.52;100.00
18755;BME280;35061;47.664;9.166;2022-08-06T01:04:35;102025.98;;;18.52;100.00
18755;BME280;35061;47.664;9.166;2022-08-06T01:07:04;102033.10;;;18.51;100.00
18755;BME280;35061;47.664;9.166;2022-08-06T01:09:35;102037.32;;;18.50;100.00
18755;BME280;35061;47.664;9.166;2022-08-06T01:12:24;102033.63;;;18.49;100.00
18755;BME280;35061;47.664;9.166;2022-08-06T01:15:00;102044.71;;;18.51;100.00
18755;BME280;35061;47.664;9.166;2022-08-06T01:17:37;102034.15;;;18.48;100.00
18755;BME280;35061;47.664;9.166;2022-08-06T01:23:33;102028.07;;;18.40;100.00
18755;BME280;35061;47.664;9.166;2022-08-06T01:29:37;102013.55;;;18.40;100.00
18755;BME280;35061;47.664;9.166;2022-08-06T01:34:25;102027.02;;;18.43;100.00
18755;BME280;35061;47.664;9.166;2022-08-06T01:37:24;102025.68;;;18.44;100.00
18755;BME280;35061;47.664;9.166;2022-08-06T01:40:07;102035.95;;;18.39;100.00
18755;BME280;35061;47.664;9.166;2022-08-06T01:42:40;102036.77;;;18.40;100.00
18755;BME280;35061;47.664;9.166;2022-08-06T01:45:12;102034.12;;;18.42;100.00
18755;BME280;35061;47.664;9.166;2022-08-06T01:47:45;102034.97;;;18.48;100.00
18755;BME280;35061;47.664;9.166;2022-08-06T01:50:25;102039.16;;;18.53;100.00
18755;BME280;35061;47.664;9.166;2022-08-06T01:52:57;102041.84;;;18.57;100.00
18755;BME280;35061;47.664;9.166;2022-08-06T01:55:56;102043.41;;;18.58;100.00
18755;BME280;35061;47.664;9.166;2022-08-06T01:58:38;102031.05;;;18.63;100.00
18755;BME280;35061;47.664;9.166;2022-08-06T02:01:13;102036.05;;;18.62;100.00
18755;BME280;35061;47.664;9.166;2022-08-06T02:03:45;102031.27;;;18.59;100.00
18755;BME280;35061;47.664;9.166;2022-08-06T02:06:37;102048.21;;;18.72;100.00
18755;BME280;35061;47.664;9.166;2022-08-06T02:09:14;102042.95;;;18.76;100.00
18755;BME280;35061;47.664;9.166;2022-08-06T02:12:02;102033.98;;;18.80;100.00
18755;BME280;35061;47.664;9.166;2022-08-06T02:14:39;102038.76;;;18.89;100.00
18755;BME280;35061;47.664;9.166;2022-08-06T02:17:11;102043.30;;;19.01;100.00
18755;BME280;35061;47.664;9.166;2022-08-06T02:19:45;102045.17;;;19.10;100.00
18755;BME280;35061;47.664;9.166;2022-08-06T02:22:36;102037.78;;;19.15;100.00
18755;BME280;35061;47.664;9.166;2022-08-06T02:25:09;102045.95;;;19.10;100.00
18755;BME280;35061;47.664;9.166;2022-08-06T02:27:50;102038.04;;;19.05;100.00
18755;BME280;35061;47.664;9.166;2022-08-06T02:30:28;102046.45;;;18.97;100.00
18755;BME280;35061;47.664;9.166;2022-08-06T02:33:00;102041.70;;;19.00;100.00
18755;BME280;35061;47.664;9.166;2022-08-06T02:35:32;102055.14;;;18.97;100.00
18755;BME280;35061;47.664;9.166;2022-08-06T02:38:11;102045.62;;;18.91;100.00
18755;BME280;35061;47.664;9.166;2022-08-06T02:40:45;102049.32;;;18.86;100.00
18755;BME280;35061;47.664;9.166;2022-08-06T02:43:25;102052.20;;;18.80;100.00
18755;BME280;35061;47.664;9.166;2022-08-06T02:46:11;102048.51;;;18.80;100.00
18755;BME280;35061;47.664;9.166;2022-08-06T02:48:48;102052.95;;;18.75;100.00
18755;BME280;35061;47.664;9.166;2022-08-06T02:51:19;102048.70;;;18.65;100.00
18755;BME280;35061;47.664;9.166;2022-08-06T02:54:14;102042.39;;;18.61;100.00
18755;BME280;35061;47.664;9.166;2022-08-06T02:56:45;102045.27;;;18.55;100.00
18755;BME280;35061;47.664;9.166;2022-08-06T02:59:15;102046.55;;;18.48;100.00
18755;BME280;35061;47.664;9.166;2022-08-06T03:01:51;102045.73;;;18.42;100.00
18755;BME280;35061;47.664;9.166;2022-08-06T03:04:23;102031.41;;;18.27;100.00
18755;BME280;35061;47.664;9.166;2022-08-06T03:07:02;102041.93;;;18.24;100.00
18755;BME280;35061;47.664;9.166;2022-08-06T03:09:51;102041.61;;;18.11;100.00
18755;BME280;35061;47.664;9.166;2022-08-06T03:12:22;102049.45;;;18.05;100.00
18755;BME280;35061;47.664;9.166;2022-08-06T03:14:58;102046.28;;;18.03;100.00
18755;BME280;35061;47.664;9.166;2022-08-06T03:17:36;102037.03;;;17.98;100.00
18755;BME280;35061;47.664;9.166;2022-08-06T03:20:06;102047.79;;;17.92;100.00
18755;BME280;35061;47.664;9.166;2022-08-06T03:22:42;102045.46;;;17.96;100.00
18755;BME280;35061;47.664;9.166;2022-08-06T03:25:13;102046.87;;;18.07;100.00
18755;BME280;35061;47.664;9.166;2022-08-06T03:27:44;102044.65;;;17.96;100.00
18755;BME280;35061;47.664;9.166;2022-08-06T03:30:14;102055.96;;;17.94;100.00
18755;BME280;35061;47.664;9.166;2022-08-06T03:33:00;102061.78;;;17.94;100.00
18755;BME280;35061;47.664;9.166;2022-08-06T03:35:50;102057.04;;;17.96;100.00
18755;BME280;35061;47.664;9.166;2022-08-06T03:38:21;102067.60;;;17.99;100.00
18755;BME280;35061;47.664;9.166;2022-08-06T03:40:55;102063.05;;;17.87;100.00
18755;BME280;35061;47.664;9.166;2022-08-06T03:43:27;102069.11;;;17.89;100.00
18755;BME280;35061;47.664;9.166;2022-08-06T03:46:37;102072.21;;;17.80;100.00
18755;BME280;35061;47.664;9.166;2022-08-06T03:52:08;102073.03;;;17.86;100.00
18755;BME280;35061;47.664;9.166;2022-08-06T03:54:44;102075.09;;;17.80;100.00
18755;BME280;35061;47.664;9.166;2022-08-06T03:57:20;102085.82;;;17.74;100.00
18755;BME280;35061;47.664;9.166;2022-08-06T04:00:08;102082.94;;;17.74;100.00
18755;BME280;35061;47.664;9.166;2022-08-06T04:02:42;102085.23;;;17.64;100.00
18755;BME280;35061;47.664;9.166;2022-08-06T04:05:21;102086.30;;;17.66;100.00
18755;BME280;35061;47.664;9.166;2022-08-06T04:07:53;102083.33;;;17.55;100.00
18755;BME280;35061;47.664;9.166;2022-08-06T04:10:33;102089.67;;;17.59;100.00
18755;BME280;35061;47.664;9.166;2022-08-06T04:13:06;102095.76;;;17.61;100.00
18755;BME280;35061;47.664;9.166;2022-08-06T04:15:55;102094.05;;;17.49;100.00
18755;BME280;35061;47.664;9.166;2022-08-06T04:18:29;102097.82;;;17.55;100.00
18755;BME280;35061;47.664;9.166;2022-08-06T04:21:01;102106.09;;;17.41;100.00
18755;BME280;35061;47.664;9.166;2022-08-06T04:23:47;102101.88;;;17.37;100.00
18755;BME280;35061;47.664;9.166;2022-08-06T04:26:19;102098.80;;;17.52;100.00
18755;BME280;35061;47.664;9.166;2022-08-06T04:28:53;102100.89;;;17.46;100.00
18755;BME280;35061;47.664;9.166;2022-08-06T04:31:26;102105.80;;;17.39;100.00
18755;BME280;35061;47.664;9.166;2022-08-06T04:34:21;102108.09;;;17.29;100.00
18755;BME280;35061;47.664;9.166;2022-08-06T04:36:55;102110.18;;;17.29;100.00
18755;BME280;35061;47.664;9.166;2022-08-06T04:39:23;102113.12;;;17.35;100.00
18755;BME280;35061;47.664;9.166;2022-08-06T04:42:12;102112.70;;;17.42;100.00
18755;BME280;35061;47.664;9.166;2022-08-06T04:44:42;102113.02;;;17.50;100.00
18755;BME280;35061;47.664;9.166;2022-08-06T04:47:11;102114.10;;;17.52;100.00
18755;BME280;35061;47.664;9.166;2022-08-06T04:49:45;102110.44;;;17.57;100.00
18755;BME280;35061;47.664;9.166;2022-08-06T04:52:28;102120.71;;;17.53;100.00
18755;BME280;35061;47.664;9.166;2022-08-06T04:55:17;102121.13;;;17.46;100.00
18755;BME280;35061;47.664;9.166;2022-08-06T04:57:51;102121.13;;;17.46;100.00
18755;BME280;35061;47.664;9.166;2022-08-06T05:00:34;102127.51;;;17.50;100.00
18755;BME280;35061;47.664;9.166;2022-08-06T05:03:22;102119.43;;;17.60;100.00
18755;BME280;35061;47.664;9.166;2022-08-06T05:06:23;102129.83;;;17.46;100.00
18755;BME280;35061;47.664;9.166;2022-08-06T05:08:55;102128.98;;;17.39;100.00
18755;BME280;35061;47.664;9.166;2022-08-06T05:11:31;102139.34;;;17.25;100.00
18755;BME280;35061;47.664;9.166;2022-08-06T05:14:37;102137.91;;;17.15;100.00
18755;BME280;35061;47.664;9.166;2022-08-06T05:17:09;102149.42;;;17.09;100.00
18755;BME280;35061;47.664;9.166;2022-08-06T05:19:43;102144.16;;;17.08;100.00
18755;BME280;35061;47.664;9.166;2022-08-06T05:22:13;102157.95;;;16.98;100.00
18755;BME280;35061;47.664;9.166;2022-08-06T05:25:04;102159.46;;;16.93;100.00
18755;BME280;35061;47.664;9.166;2022-08-06T05:27:41;102172.30;;;17.07;100.00
18755;BME280;35061;47.664;9.166;2022-08-06T05:30:29;102185.91;;;17.01;100.00
18755;BME280;35061;47.664;9.166;2022-08-06T05:32:57;102179.37;;;16.85;100.00
18755;BME280;35061;47.664;9.166;2022-08-06T05:35:27;102184.21;;;16.73;100.00
18755;BME280;35061;47.664;9.166;2022-08-06T05:38:16;102187.16;;;16.58;100.00
18755;BME280;35061;47.664;9.166;2022-08-06T05:40:57;102193.43;;;16.57;100.00
18755;BME280;35061;47.664;9.166;2022-08-06T05:43:27;102190.06;;;16.58;100.00
18755;BME280;35061;47.664;9.166;2022-08-06T05:46:20;102198.50;;;16.62;100.00
18755;BME280;35061;47.664;9.166;2022-08-06T05:49:10;102201.18;;;16.66;100.00
18755;BME280;35061;47.664;9.166;2022-08-06T05:52:09;102199.35;;;16.48;100.00
18755;BME280;35061;47.664;9.166;2022-08-06T05:57:26;102209.81;;;16.45;100.00
18755;BME280;35061;47.664;9.166;2022-08-06T06:00:09;102205.04;;;16.42;100.00
18755;BME280;35061;47.664;9.166;2022-08-06T06:03:01;102211.38;;;16.46;100.00
18755;BME280;35061;47.664;9.166;2022-08-06T06:05:31;102218.64;;;16.56;100.00
18755;BME280;35061;47.664;9.166;2022-08-06T06:08:19;102211.05;;;16.59;100.00
18755;BME280;35061;47.664;9.166;2022-08-06T06:11:08;102217.53;;;16.69;100.00
18755;BME280;35061;47.664;9.166;2022-08-06T06:13:40;102223.32;;;16.69;100.00
18755;BME280;35061;47.664;9.166;2022-08-06T06:16:38;102227.80;;;16.70;100.00
18755;BME280;35061;47.664;9.166;2022-08-06T06:19:57;102232.51;;;16.67;100.00
18755;BME280;35061;47.664;9.166;2022-08-06T06:22:41;102230.09;;;16.66;100.00
18755;BME280;35061;47.664;9.166;2022-08-06T06:25:33;102232.51;;;16.67;100.00
18755;BME280;35061;47.664;9.166;2022-08-06T06:37:19;102229.70;;;16.73;100.00
18755;BME280;35061;47.664;9.166;2022-08-06T06:42:55;102238.04;;;16.86;100.00
18755;BME280;35061;47.664;9.166;2022-08-06T06:45:36;102243.37;;;16.93;100.00
18755;BME280;35061;47.664;9.166;2022-08-06T06:48:54;102243.70;;;16.95;100.00
18755;BME280;35061;47.664;9.166;2022-08-06T06:51:44;102246.57;;;16.95;100.00
18755;BME280;35061;47.664;9.166;2022-08-06T06:54:28;102250.63;;;17.04;100.00
18755;BME280;35061;47.664;9.166;2022-08-06T06:57:04;102246.70;;;17.22;100.00
18755;BME280;35061;47.664;9.166;2022-08-06T06:59:37;102256.74;;;17.47;100.00
18755;BME280;35061;47.664;9.166;2022-08-06T07:02:27;102248.23;;;17.64;100.00
18755;BME280;35061;47.664;9.166;2022-08-06T07:05:02;102256.94;;;17.91;100.00
18755;BME280;35061;47.664;9.166;2022-08-06T07:07:35;102250.23;;;17.79;91.96
18755;BME280;35061;47.664;9.166;2022-08-06T07:10:08;102256.64;;;17.89;96.24
18755;BME280;35061;47.664;9.166;2022-08-06T07:12:37;102259.81;;;18.11;96.64
18755;BME280;35061;47.664;9.166;2022-08-06T07:15:08;102264.16;;;18.27;95.04
18755;BME280;35061;47.664;9.166;2022-08-06T07:17:44;102271.33;;;18.32;94.43
18755;BME280;35061;47.664;9.166;2022-08-06T07:20:19;102261.84;;;18.37;92.21
18755;BME280;35061;47.664;9.166;2022-08-06T07:22:57;102265.73;;;18.29;92.43
18755;BME280;35061;47.664;9.166;2022-08-06T07:25:47;102270.37;;;18.47;93.19
18755;BME280;35061;47.664;9.166;2022-08-06T07:28:22;102266.02;;;18.31;89.16
18755;BME280;35061;47.664;9.166;2022-08-06T07:30:59;102265.93;;;18.19;90.52
18755;BME280;35061;47.664;9.166;2022-08-06T07:33:37;102281.73;;;18.18;90.71
18755;BME280;35061;47.664;9.166;2022-08-06T07:36:30;102282.18;;;18.11;90.93
18755;BME280;35061;47.664;9.166;2022-08-06T07:39:10;102280.97;;;17.97;90.06
18755;BME280;35061;47.664;9.166;2022-08-06T07:41:41;102288.75;;;17.85;90.89
18755;BME280;35061;47.664;9.166;2022-08-06T07:44:32;102293.56;;;17.67;90.62
18755;BME280;35061;47.664;9.166;2022-08-06T07:47:26;102286.34;;;17.57;91.11
18755;BME280;35061;47.664;9.166;2022-08-06T07:50:15;102289.87;;;17.46;89.99
18755;BME280;35061;47.664;9.166;2022-08-06T07:52:51;102288.07;;;17.49;92.09
18755;BME280;35061;47.664;9.166;2022-08-06T07:55:21;102291.99;;;17.46;90.53
18755;BME280;35061;47.664;9.166;2022-08-06T07:58:07;102301.77;;;17.27;90.01
18755;BME280;35061;47.664;9.166;2022-08-06T08:00:36;102297.19;;;17.21;92.09
18755;BME280;35061;47.664;9.166;2022-08-06T08:03:05;102311.09;;;17.16;91.32
18755;BME280;35061;47.664;9.166;2022-08-06T08:06:14;102306.02;;;17.11;92.40
18755;BME280;35061;47.664;9.166;2022-08-06T08:09:37;102316.22;;;17.07;92.04
18755;BME280;35061;47.664;9.166;2022-08-06T08:11:46;102311.48;;;17.09;92.58
18755;BME280;35061;47.664;9.166;2022-08-06T08:14:35;102319.59;;;17.05;94.17
18755;BME280;35061;47.664;9.166;2022-08-06T08:17:14;102315.99;;;17.10;94.20
18755;BME280;35061;47.664;9.166;2022-08-06T08:19:55;102327.34;;;17.14;94.11
18755;BME280;35061;47.664;9.166;2022-08-06T08:22:28;102314.16;;;17.13;94.09
18755;BME280;35061;47.664;9.166;2022-08-06T08:24:56;102315.70;;;17.08;93.00
18755;BME280;35061;47.664;9.166;2022-08-06T08:27:24;102317.20;;;17.04;93.53
18755;BME280;35061;47.664;9.166;2022-08-06T08:29:52;102320.90;;;17.04;94.62
18755;BME280;35061;47.664;9.166;2022-08-06T08:32:23;102322.37;;;17.14;95.49
18755;BME280;35061;47.664;9.166;2022-08-06T08:34:52;102317.23;;;17.24;94.89
18755;BME280;35061;47.664;9.166;2022-08-06T08:37:22;102320.18;;;17.30;95.03
18755;BME280;35061;47.664;9.166;2022-08-06T08:39:50;102318.38;;;17.33;94.86
18755;BME280;35061;47.664;9.166;2022-08-06T08:42:46;102317.17;;;17.39;94.46
18755;BME280;35061;47.664;9.166;2022-08-06T08:45:20;102321.98;;;17.42;94.57
18755;BME280;35061;47.664;9.166;2022-08-06T08:48:01;102325.70;;;17.49;94.23
18755;BME280;35061;47.664;9.166;2022-08-06T08:50:31;102325.41;;;17.47;92.62
18755;BME280;35061;47.664;9.166;2022-08-06T08:53:06;102327.02;;;17.27;91.23
18755;BME280;35061;47.664;9.166;2022-08-06T08:55:36;102334.96;;;17.11;91.96
18755;BME280;35061;47.664;9.166;2022-08-06T08:58:24;102336.56;;;16.97;91.54
18755;BME280;35061;47.664;9.166;2022-08-06T09:01:12;102344.24;;;16.85;92.35
18755;BME280;35061;47.664;9.166;2022-08-06T09:04:04;102341.66;;;16.72;93.46
18755;BME280;35061;47.664;9.166;2022-08-06T09:06:32;102341.59;;;16.67;93.84
18755;BME280;35061;47.664;9.166;2022-08-06T09:09:05;102339.41;;;16.62;94.19
18755;BME280;35061;47.664;9.166;2022-08-06T09:11:41;102338.20;;;16.53;93.58
18755;BME280;35061;47.664;9.166;2022-08-06T09:14:29;102348.98;;;16.53;94.61
18755;BME280;35061;47.664;9.166;2022-08-06T09:16:59;102341.40;;;16.55;94.68
18755;BME280;35061;47.664;9.166;2022-08-06T09:19:28;102342.22;;;16.56;94.80
18755;BME280;35061;47.664;9.166;2022-08-06T09:22:06;102347.19;;;16.55;94.68
18755;BME280;35061;47.664;9.166;2022-08-06T09:24:35;102353.37;;;16.48;94.93
18755;BME280;35061;47.664;9.166;2022-08-06T09:27:07;102351.99;;;16.58;95.77
18755;BME280;35061;47.664;9.166;2022-08-06T09:30:00;102353.37;;;16.63;95.73
18755;BME280;35061;47.664;9.166;2022-08-06T09:32:48;102356.54;;;16.80;96.15
18755;BME280;35061;47.664;9.166;2022-08-06T09:35:27;102356.80;;;16.97;95.87
18755;BME280;35061;47.664;9.166;2022-08-06T09:38:13;102351.21;;;17.09;96.33
18755;BME280;35061;47.664;9.166;2022-08-06T09:41:12;102355.66;;;17.25;95.91
18755;BME280;35061;47.664;9.166;2022-08-06T09:43:45;102357.00;;;17.44;96.01
18755;BME280;35061;47.664;9.166;2022-08-06T09:46:44;102356.87;;;17.54;95.43
18755;BME280;35061;47.664;9.166;2022-08-06T09:49:15;102354.09;;;17.65;95.27
18755;BME280;35061;47.664;9.166;2022-08-06T09:52:17;102358.86;;;17.68;93.73
18755;BME280;35061;47.664;9.166;2022-08-06T09:54:47;102359.91;;;17.65;93.32
18755;BME280;35061;47.664;9.166;2022-08-06T09:57:20;102364.23;;;17.55;93.08
18755;BME280;35061;47.664;9.166;2022-08-06T10:00:01;102361.77;;;17.48;92.95
18755;BME280;35061;47.664;9.166;2022-08-06T10:02:32;102372.34;;;17.51;94.27
18755;BME280;35061;47.664;9.166;2022-08-06T10:05:08;102371.78;;;17.67;93.59
18755;BME280;35061;47.664;9.166;2022-08-06T10:07:47;102359.81;;;17.60;92.93
18755;BME280;35061;47.664;9.166;2022-08-06T10:10:19;102364.36;;;17.46;93.04
18755;BME280;35061;47.664;9.166;2022-08-06T10:13:18;102364.65;;;17.48;93.97
18755;BME280;35061;47.664;9.166;2022-08-06T10:15:49;102373.28;;;17.42;93.81
18755;BME280;35061;47.664;9.166;2022-08-06T10:21:23;102369.13;;;17.28;94.50
18755;BME280;35061;47.664;9.166;2022-08-06T10:23:55;102369.26;;;17.19;94.44
18755;BME280;35061;47.664;9.166;2022-08-06T10:26:30;102366.77;;;17.11;94.95
18755;BME280;35061;47.664;9.166;2022-08-06T10:29:04;102363.51;;;17.04;94.90
18755;BME280;35061;47.664;9.166;2022-08-06T10:31:33;102362.72;;;17.03;95.67
18755;BME280;35061;47.664;9.166;2022-08-06T10:34:16;102371.55;;;17.14;95.98
18755;BME280;35061;47.664;9.166;2022-08-06T10:36:59;102367.37;;;17.15;95.35
18755;BME280;35061;47.664;9.166;2022-08-06T10:39:54;102358.90;;;17.12;95.55
18755;BME280;35061;47.664;9.166;2022-08-06T10:42:33;102357.30;;;17.11;95.59
18755;BME280;35061;47.664;9.166;2022-08-06T10:45:02;102361.28;;;17.13;95.79
18755;BME280;35061;47.664;9.166;2022-08-06T10:47:41;102367.07;;;17.13;95.79
18755;BME280;35061;47.664;9.166;2022-08-06T10:50:30;102350.59;;;17.20;96.35
18755;BME280;35061;47.664;9.166;2022-08-06T10:53:17;102351.47;;;17.26;96.44
18755;BME280;35061;47.664;9.166;2022-08-06T10:56:07;102351.41;;;17.41;97.30
18755;BME280;35061;47.664;9.166;2022-08-06T10:58:38;102354.74;;;17.54;97.60
18755;BME280;35061;47.664;9.166;2022-08-06T11:15:41;102345.00;;;18.52;94.13
18755;BME280;35061;47.664;9.166;2022-08-06T11:18:11;102347.45;;;18.59;93.38
18755;BME280;35061;47.664;9.166;2022-08-06T11:20:46;102344.05;;;18.61;92.57
18755;BME280;35061;47.664;9.166;2022-08-06T11:26:03;102343.56;;;18.36;90.95
18755;BME280;35061;47.664;9.166;2022-08-06T11:31:04;102339.11;;;18.40;91.55
18755;BME280;35061;47.664;9.166;2022-08-06T11:34:05;102331.00;;;18.45;91.24
18755;BME280;35061;47.664;9.166;2022-08-06T11:36:45;102324.98;;;18.48;90.13
18755;BME280;35061;47.664;9.166;2022-08-06T11:39:25;102323.65;;;18.49;90.47
18755;BME280;35061;47.664;9.166;2022-08-06T11:42:04;102320.18;;;18.45;90.88
18755;BME280;35061;47.664;9.166;2022-08-06T11:44:34;102323.02;;;18.39;90.21
18755;BME280;35061;47.664;9.166;2022-08-06T11:47:15;102317.98;;;18.34;90.19
18755;BME280;35061;47.664;9.166;2022-08-06T11:50:22;102318.70;;;18.29;90.04
18755;BME280;35061;47.664;9.166;2022-08-06T11:52:53;102324.73;;;18.25;90.33
18755;BME280;35061;47.664;9.166;2022-08-06T11:55:21;102324.92;;;18.16;89.83
18755;BME280;35061;47.664;9.166;2022-08-06T12:01:01;102329.30;;;18.06;90.10
18755;BME280;35061;47.664;9.166;2022-08-06T12:03:49;102313.93;;;17.99;89.66
18755;BME280;35061;47.664;9.166;2022-08-06T12:06:22;102319.82;;;18.05;90.35
18755;BME280;35061;47.664;9.166;2022-08-06T12:09:11;102322.70;;;18.05;90.10
18755;BME280;35061;47.664;9.166;2022-08-06T12:14:55;102320.99;;;18.19;90.92
18755;BME280;35061;47.664;9.166;2022-08-06T12:17:27;102323.16;;;18.24;90.76
18755;BME280;35061;47.664;9.166;2022-08-06T12:20:11;102314.23;;;18.28;90.25
18755;BME280;35061;47.664;9.166;2022-08-06T12:22:59;102320.02;;;18.28;90.10
18755;BME280;35061;47.664;9.166;2022-08-06T12:25:38;102321.65;;;18.35;90.20
18755;BME280;35061;47.664;9.166;2022-08-06T12:28:07;102320.67;;;18.38;89.72
18755;BME280;35061;47.664;9.166;2022-08-06T12:30:44;102313.61;;;18.45;90.13
18755;BME280;35061;47.664;9.166;2022-08-06T12:33:15;102316.32;;;18.54;90.16
18755;BME280;35061;47.664;9.166;2022-08-06T12:38:23;102304.55;;;18.69;89.25
18755;BME280;35061;47.664;9.166;2022-08-06T12:40:56;102309.88;;;18.76;89.51
18755;BME280;35061;47.664;9.166;2022-08-06T12:43:29;102297.75;;;18.78;88.26
18755;BME280;35061;47.664;9.166;2022-08-06T12:46:12;102300.69;;;18.83;88.47
18755;BME280;35061;47.664;9.166;2022-08-06T12:48:48;102296.27;;;18.94;88.84
18755;BME280;35061;47.664;9.166;2022-08-06T12:51:17;102296.14;;;19.09;89.04
18755;BME280;35061;47.664;9.166;2022-08-06T12:53:59;102287.45;;;19.15;88.32
18755;BME280;35061;47.664;9.166;2022-08-06T12:56:30;102289.60;;;19.25;88.03
18755;BME280;35061;47.664;9.166;2022-08-06T12:59:07;102290.20;;;19.35;87.08
18755;BME280;35061;47.664;9.166;2022-08-06T13:01:50;102280.45;;;19.38;85.19
18755;BME280;35061;47.664;9.166;2022-08-06T13:04:42;102281.52;;;19.47;84.60
18755;BME280;35061;47.664;9.166;2022-08-06T13:07:12;102282.90;;;19.57;83.56
18755;BME280;35061;47.664;9.166;2022-08-06T13:09:43;102277.87;;;19.63;83.73
18755;BME280;35061;47.664;9.166;2022-08-06T13:12:33;102278.95;;;19.66;82.87
18755;BME280;35061;47.664;9.166;2022-08-06T13:15:21;102278.95;;;19.72;81.91
18755;BME280;35061;47.664;9.166;2022-08-06T13:20:56;102282.70;;;19.84;79.80
18755;BME280;35061;47.664;9.166;2022-08-06T13:23:50;102278.75;;;19.92;80.58
18755;BME280;35061;47.664;9.166;2022-08-06T13:26:25;102284.86;;;19.94;78.37
18755;BME280;35061;47.664;9.166;2022-08-06T13:29:16;102279.04;;;20.00;78.85
18755;BME280;35061;47.664;9.166;2022-08-06T13:32:09;102281.16;;;20.05;77.79
18755;BME280;35061;47.664;9.166;2022-08-06T13:35:00;102272.47;;;20.11;78.40
18755;BME280;35061;47.664;9.166;2022-08-06T13:37:51;102269.82;;;20.13;77.63
18755;BME280;35061;47.664;9.166;2022-08-06T13:40:46;102264.00;;;20.19;76.47
18755;BME280;35061;47.664;9.166;2022-08-06T13:43:47;102262.95;;;20.28;74.68
18755;BME280;35061;47.664;9.166;2022-08-06T13:46:22;102262.66;;;20.37;75.04
18755;BME280;35061;47.664;9.166;2022-08-06T13:48:56;102257.39;;;20.41;75.87
18755;BME280;35061;47.664;9.166;2022-08-06T13:51:28;102257.66;;;20.43;75.33
18755;BME280;35061;47.664;9.166;2022-08-06T13:54:04;102251.02;;;20.54;75.21
18755;BME280;35061;47.664;9.166;2022-08-06T13:56:45;102250.23;;;20.65;75.51
18755;BME280;35061;47.664;9.166;2022-08-06T13:59:20;102247.81;;;20.75;75.09
18755;BME280;35061;47.664;9.166;2022-08-06T14:02:07;102241.73;;;20.84;74.17
18755;BME280;35061;47.664;9.166;2022-08-06T14:04:37;102240.69;;;20.87;73.54
18755;BME280;35061;47.664;9.166;2022-08-06T14:07:06;102234.05;;;20.92;72.89
18755;BME280;35061;47.664;9.166;2022-08-06T14:09:35;102237.74;;;20.99;72.14
18755;BME280;35061;47.664;9.166;2022-08-06T14:12:23;102237.97;;;21.07;72.07
18755;BME280;35061;47.664;9.166;2022-08-06T14:14:55;102236.37;;;21.11;69.91
18755;BME280;35061;47.664;9.166;2022-08-06T14:17:24;102238.46;;;21.16;71.66
18755;BME280;35061;47.664;9.166;2022-08-06T14:20:00;102241.34;;;21.22;71.43
18755;BME280;35061;47.664;9.166;2022-08-06T14:22:44;102241.08;;;21.26;70.59
18755;BME280;35061;47.664;9.166;2022-08-06T14:25:14;102234.18;;;21.29;70.45
18755;BME280;35061;47.664;9.166;2022-08-06T14:27:42;102238.36;;;21.33;69.82
18755;BME280;35061;47.664;9.166;2022-08-06T14:30:14;102239.45;;;21.36;70.00
18755;BME280;35061;47.664;9.166;2022-08-06T14:33:00;102234.93;;;21.35;69.26
18755;BME280;35061;47.664;9.166;2022-08-06T14:35:48;102234.14;;;21.34;69.76
18755;BME280;35061;47.664;9.166;2022-08-06T14:38:20;102229.63;;;21.33;69.47
18755;BME280;35061;47.664;9.166;2022-08-06T14:40:59;102234.41;;;21.37;69.19
18755;BME280;35061;47.664;9.166;2022-08-06T14:44:05;102234.14;;;21.34;69.21
18755;BME280;35061;47.664;9.166;2022-08-06T14:46:51;102234.70;;;21.27;68.64
18755;BME280;35061;47.664;9.166;2022-08-06T14:49:20;102229.41;;;21.26;68.97